Aviation Digital Data Service (ADDS)

Output produced by METARs form (2032 UTC 06 May 2015)
found at http://www.aviationweather.gov/adds/metars/
 
KROW 061951Z 18011KT 10SM CLR 27/05 A2982 RMK AO2 SLP047 T02670050
KROW 061851Z 10SM CLR 26/06 A2985 RMK AO2 SLP054 T02610056 $
KROW 061751Z 24004KT 10SM CLR 25/04 A2985 RMK AO2 SLP056 T02500044 10256 20089 58017 $
KROW 061651Z 00000KT 10SM CLR 24/07 A2988 RMK AO2 SLP066 T02390072
KROW 061551Z 22005KT 10SM CLR 21/07 A2989 RMK AO2 SLP075 T02060072
KROW 061451Z 06003KT 10SM CLR 17/09 A2991 RMK AO2 SLP081 T01720089 51011
KROW 061351Z 00000KT 10SM CLR 14/09 A2990 RMK AO2 SLP083 T01440094
KROW 061251Z 19004KT 10SM CLR 10/08 A2989 RMK AO2 SLP076 T01000078
KROW 061151Z 00000KT 10SM CLR 11/08 A2987 RMK AO2 SLP068 70023 T01060078 10150 20094 51004
KROW 061051Z AUTO 32004KT 10SM CLR 10/08 A2987 RMK AO2 SLP066 T01000078
KROW 060951Z AUTO 18003KT 10SM CLR 11/08 A2987 RMK AO2 SLP067 T01060078
KROW 060851Z AUTO 27004KT 10SM CLR 12/08 A2986 RMK AO2 SLP063 T01220078 58004
KROW 060751Z AUTO 08003KT 10SM CLR 12/08 A2986 RMK AO2 SLP067 T01170078
KROW 060651Z AUTO 25005KT 10SM CLR 13/08 A2987 RMK AO2 SLP077 T01280078 402560122
KROW 060551Z AUTO 29006KT 10SM CLR 14/08 A2987 RMK AO2 SLP065 T01440083 10244 20133 50013
KROW 060451Z AUTO 28007KT 10SM CLR 16/07 A2988 RMK AO2 SLP067 T01610067
KROW 060351Z AUTO 22008KT 10SM CLR 14/08 A2986 RMK AO2 SLP065 T01440078
KROW 060251Z AUTO 23009KT 10SM CLR 17/07 A2983 RMK AO2 SLP054 T01670072 53014
KROW 060151Z 22007KT 10SM CLR 17/08 A2981 RMK AO2 SLP049 T01720078
KROW 060051Z 23010KT 10SM FEW120 23/06 A2979 RMK AO2 SLP037 T02280056
KROW 052351Z 23016G23KT 10SM CLR 24/03 A2978 RMK AO2 PK WND 23026/2322 SLP035 60023 T02390033 10256 20150 55008
KROW 052251Z 24014G22KT 10SM CLR 25/03 A2978 RMK AO2 SLP030 T02500033
KROW 052151Z 26010KT 10SM BKN100 24/04 A2979 RMK AO2 LTG DSNT N SLP036 T02390044
KROW 052051Z 11011KT 10SM FEW110 22/09 A2981 RMK AO2 RAE1954 SLP045 P0000 60023 T02220089 56013
KROW 061732Z 0618/0718 19015G22KT P6SM SCT120 
     FM070200 21010KT P6SM SCT060 BKN120 
     FM070600 20006KT P6SM BKN060 BKN120 
     FM071200 24007KT P6SM FEW050 SCT120